sensor_id;sensor_type;location;lat;lon;timestamp;P1;P2;P0
54869;PMS5003;40756;-37.950;145.008;2022-07-23T00:00:27;4;4;
54869;PMS5003;40756;-37.950;145.008;2022-07-23T00:02:57;5;4;
54869;PMS5003;40756;-37.950;145.008;2022-07-23T00:05:27;4;4;
54869;PMS5003;40756;-37.950;145.008;2022-07-23T00:07:56;4;4;
54869;PMS5003;40756;-37.950;145.008;2022-07-23T00:10:26;4;4;
54869;PMS5003;40756;-37.950;145.008;2022-07-23T00:12:56;4;3;
54869;PMS5003;40756;-37.950;145.008;2022-07-23T00:15:26;4;3;
54869;PMS5003;40756;-37.950;145.008;2022-07-23T00:17:56;3;3;
54869;PMS5003;40756;-37.950;145.008;2022-07-23T00:20:26;3;3;
54869;PMS5003;40756;-37.950;145.008;2022-07-23T00:22:56;2;1;
54869;PMS5003;40756;-37.950;145.008;2022-07-23T00:25:26;2;2;
54869;PMS5003;40756;-37.950;145.008;2022-07-23T00:27:57;4;4;
54869;PMS5003;40756;-37.950;145.008;2022-07-23T00:30:28;3;3;
54869;PMS5003;40756;-37.950;145.008;2022-07-23T00:33:00;4;4;
54869;PMS5003;40756;-37.950;145.008;2022-07-23T00:35:32;4;4;
54869;PMS5003;40756;-37.950;145.008;2022-07-23T00:38:03;2;2;
54869;PMS5003;40756;-37.950;145.008;2022-07-23T00:40:33;3;3;
54869;PMS5003;40756;-37.950;145.008;2022-07-23T00:43:03;4;4;
54869;PMS5003;40756;-37.950;145.008;2022-07-23T00:45:33;4;4;
54869;PMS5003;40756;-37.950;145.008;2022-07-23T00:48:02;3;3;
54869;PMS5003;40756;-37.950;145.008;2022-07-23T00:50:33;2;2;
54869;PMS5003;40756;-37.950;145.008;2022-07-23T00:53:02;3;3;
54869;PMS5003;40756;-37.950;145.008;2022-07-23T00:55:33;8;7;
54869;PMS5003;40756;-37.950;145.008;2022-07-23T00:58:03;5;5;
54869;PMS5003;40756;-37.950;145.008;2022-07-23T01:00:33;4;4;
54869;PMS5003;40756;-37.950;145.008;2022-07-23T01:03:03;4;3;
54869;PMS5003;40756;-37.950;145.008;2022-07-23T01:05:32;3;3;
54869;PMS5003;40756;-37.950;145.008;2022-07-23T01:08:02;4;4;
54869;PMS5003;40756;-37.950;145.008;2022-07-23T01:10:33;2;2;
54869;PMS5003;40756;-37.950;145.008;2022-07-23T01:13:03;4;4;
54869;PMS5003;40756;-37.950;145.008;2022-07-23T01:15:35;2;2;
54869;PMS5003;40756;-37.950;145.008;2022-07-23T01:18:06;5;4;
54869;PMS5003;40756;-37.950;145.008;2022-07-23T01:20:36;5;5;
54869;PMS5003;40756;-37.950;145.008;2022-07-23T01:23:05;6;6;
54869;PMS5003;40756;-37.950;145.008;2022-07-23T01:25:35;4;4;
54869;PMS5003;40756;-37.950;145.008;2022-07-23T01:28:05;4;4;
54869;PMS5003;40756;-37.950;145.008;2022-07-23T01:30:35;6;5;
54869;PMS5003;40756;-37.950;145.008;2022-07-23T01:33:04;3;3;
54869;PMS5003;40756;-37.950;145.008;2022-07-23T01:35:35;3;3;
54869;PMS5003;40756;-37.950;145.008;2022-07-23T01:38:05;3;3;
54869;PMS5003;40756;-37.950;145.008;2022-07-23T01:40:35;4;4;
54869;PMS5003;40756;-37.950;145.008;2022-07-23T01:43:04;7;6;
54869;PMS5003;40756;-37.950;145.008;2022-07-23T01:45:34;4;4;
54869;PMS5003;40756;-37.950;145.008;2022-07-23T01:48:04;4;4;
54869;PMS5003;40756;-37.950;145.008;2022-07-23T01:50:34;5;5;
54869;PMS5003;40756;-37.950;145.008;2022-07-23T01:53:04;4;3;
54869;PMS5003;40756;-37.950;145.008;2022-07-23T01:55:33;4;3;
54869;PMS5003;40756;-37.950;145.008;2022-07-23T01:58:03;5;5;
54869;PMS5003;40756;-37.950;145.008;2022-07-23T02:00:33;4;4;
54869;PMS5003;40756;-37.950;145.008;2022-07-23T02:03:03;5;5;
54869;PMS5003;40756;-37.950;145.008;2022-07-23T02:05:32;5;5;
54869;PMS5003;40756;-37.950;145.008;2022-07-23T02:08:02;5;5;
54869;PMS5003;40756;-37.950;145.008;2022-07-23T02:10:32;4;4;
54869;PMS5003;40756;-37.950;145.008;2022-07-23T02:13:01;3;3;
54869;PMS5003;40756;-37.950;145.008;2022-07-23T02:15:31;4;4;
54869;PMS5003;40756;-37.950;145.008;2022-07-23T02:18:01;5;5;
54869;PMS5003;40756;-37.950;145.008;2022-07-23T02:20:32;6;6;
54869;PMS5003;40756;-37.950;145.008;2022-07-23T02:23:02;6;6;
54869;PMS5003;40756;-37.950;145.008;2022-07-23T02:25:31;6;6;
54869;PMS5003;40756;-37.950;145.008;2022-07-23T02:28:01;4;4;
54869;PMS5003;40756;-37.950;145.008;2022-07-23T02:30:31;4;4;
54869;PMS5003;40756;-37.950;145.008;2022-07-23T02:33:02;5;4;
54869;PMS5003;40756;-37.950;145.008;2022-07-23T02:35:32;3;3;
54869;PMS5003;40756;-37.950;145.008;2022-07-23T02:38:01;4;4;
54869;PMS5003;40756;-37.950;145.008;2022-07-23T02:40:31;5;5;
54869;PMS5003;40756;-37.950;145.008;2022-07-23T02:43:01;6;5;
54869;PMS5003;40756;-37.950;145.008;2022-07-23T02:45:30;5;5;
54869;PMS5003;40756;-37.950;145.008;2022-07-23T02:48:00;5;5;
54869;PMS5003;40756;-37.950;145.008;2022-07-23T02:50:29;5;5;
54869;PMS5003;40756;-37.950;145.008;2022-07-23T02:52:59;6;6;
54869;PMS5003;40756;-37.950;145.008;2022-07-23T02:55:29;4;3;
54869;PMS5003;40756;-37.950;145.008;2022-07-23T02:57:58;5;5;
54869;PMS5003;40756;-37.950;145.008;2022-07-23T03:00:28;3;3;
54869;PMS5003;40756;-37.950;145.008;2022-07-23T03:02:57;4;4;
54869;PMS5003;40756;-37.950;145.008;2022-07-23T03:05:27;4;4;
54869;PMS5003;40756;-37.950;145.008;2022-07-23T03:07:57;5;5;
54869;PMS5003;40756;-37.950;145.008;2022-07-23T03:10:26;6;5;
54869;PMS5003;40756;-37.950;145.008;2022-07-23T03:12:56;6;6;
54869;PMS5003;40756;-37.950;145.008;2022-07-23T03:15:26;7;6;
54869;PMS5003;40756;-37.950;145.008;2022-07-23T03:17:55;8;8;
54869;PMS5003;40756;-37.950;145.008;2022-07-23T03:20:25;6;6;
54869;PMS5003;40756;-37.950;145.008;2022-07-23T03:22:55;6;5;
54869;PMS5003;40756;-37.950;145.008;2022-07-23T03:25:25;6;6;
54869;PMS5003;40756;-37.950;145.008;2022-07-23T03:27:55;8;7;
54869;PMS5003;40756;-37.950;145.008;2022-07-23T03:30:24;7;6;
54869;PMS5003;40756;-37.950;145.008;2022-07-23T03:32:54;6;6;
54869;PMS5003;40756;-37.950;145.008;2022-07-23T03:35:24;6;6;
54869;PMS5003;40756;-37.950;145.008;2022-07-23T03:37:54;7;7;
54869;PMS5003;40756;-37.950;145.008;2022-07-23T03:40:24;6;6;
54869;PMS5003;40756;-37.950;145.008;2022-07-23T03:42:53;6;6;
54869;PMS5003;40756;-37.950;145.008;2022-07-23T03:45:23;5;5;
54869;PMS5003;40756;-37.950;145.008;2022-07-23T03:47:53;3;3;
54869;PMS5003;40756;-37.950;145.008;2022-07-23T03:50:22;5;4;
54869;PMS5003;40756;-37.950;145.008;2022-07-23T03:52:52;4;4;
54869;PMS5003;40756;-37.950;145.008;2022-07-23T03:55:22;4;4;
54869;PMS5003;40756;-37.950;145.008;2022-07-23T03:57:51;2;2;
54869;PMS5003;40756;-37.950;145.008;2022-07-23T04:00:21;3;3;
54869;PMS5003;40756;-37.950;145.008;2022-07-23T04:02:50;3;3;
54869;PMS5003;40756;-37.950;145.008;2022-07-23T04:05:20;2;2;
54869;PMS5003;40756;-37.950;145.008;2022-07-23T04:07:50;2;2;
54869;PMS5003;40756;-37.950;145.008;2022-07-23T04:10:19;3;3;
54869;PMS5003;40756;-37.950;145.008;2022-07-23T04:12:49;2;2;
54869;PMS5003;40756;-37.950;145.008;2022-07-23T04:15:19;1;1;
54869;PMS5003;40756;-37.950;145.008;2022-07-23T04:17:48;2;2;
54869;PMS5003;40756;-37.950;145.008;2022-07-23T04:20:18;2;2;
54869;PMS5003;40756;-37.950;145.008;2022-07-23T04:22:47;3;3;
54869;PMS5003;40756;-37.950;145.008;2022-07-23T04:25:18;4;3;
54869;PMS5003;40756;-37.950;145.008;2022-07-23T04:27:48;5;5;
54869;PMS5003;40756;-37.950;145.008;2022-07-23T04:30:17;3;3;
54869;PMS5003;40756;-37.950;145.008;2022-07-23T04:32:47;3;3;
54869;PMS5003;40756;-37.950;145.008;2022-07-23T04:35:17;4;4;
54869;PMS5003;40756;-37.950;145.008;2022-07-23T04:37:47;4;4;
54869;PMS5003;40756;-37.950;145.008;2022-07-23T04:40:17;3;3;
54869;PMS5003;40756;-37.950;145.008;2022-07-23T04:42:46;5;5;
54869;PMS5003;40756;-37.950;145.008;2022-07-23T04:45:16;5;5;
54869;PMS5003;40756;-37.950;145.008;2022-07-23T04:47:46;4;4;
54869;PMS5003;40756;-37.950;145.008;2022-07-23T04:50:16;5;5;
54869;PMS5003;40756;-37.950;145.008;2022-07-23T04:52:46;6;6;
54869;PMS5003;40756;-37.950;145.008;2022-07-23T04:55:16;6;6;
54869;PMS5003;40756;-37.950;145.008;2022-07-23T04:57:45;5;4;
54869;PMS5003;40756;-37.950;145.008;2022-07-23T05:00:15;13;13;
54869;PMS5003;40756;-37.950;145.008;2022-07-23T05:02:44;11;10;
54869;PMS5003;40756;-37.950;145.008;2022-07-23T05:05:14;11;11;
54869;PMS5003;40756;-37.950;145.008;2022-07-23T05:07:44;10;9;
54869;PMS5003;40756;-37.950;145.008;2022-07-23T05:10:13;11;10;
54869;PMS5003;40756;-37.950;145.008;2022-07-23T05:12:43;8;7;
54869;PMS5003;40756;-37.950;145.008;2022-07-23T05:15:13;9;8;
54869;PMS5003;40756;-37.950;145.008;2022-07-23T05:17:42;7;7;
54869;PMS5003;40756;-37.950;145.008;2022-07-23T05:20:12;6;6;
54869;PMS5003;40756;-37.950;145.008;2022-07-23T05:22:41;7;7;
54869;PMS5003;40756;-37.950;145.008;2022-07-23T05:25:11;11;10;
54869;PMS5003;40756;-37.950;145.008;2022-07-23T05:27:41;13;13;
54869;PMS5003;40756;-37.950;145.008;2022-07-23T05:30:12;11;10;
54869;PMS5003;40756;-37.950;145.008;2022-07-23T05:32:42;11;11;
54869;PMS5003;40756;-37.950;145.008;2022-07-23T05:35:16;11;11;
54869;PMS5003;40756;-37.950;145.008;2022-07-23T05:37:47;14;13;
54869;PMS5003;40756;-37.950;145.008;2022-07-23T05:40:17;12;12;
54869;PMS5003;40756;-37.950;145.008;2022-07-23T05:42:46;13;13;
54869;PMS5003;40756;-37.950;145.008;2022-07-23T05:45:16;12;11;
54869;PMS5003;40756;-37.950;145.008;2022-07-23T05:47:46;13;12;
54869;PMS5003;40756;-37.950;145.008;2022-07-23T05:50:16;13;13;
54869;PMS5003;40756;-37.950;145.008;2022-07-23T05:52:46;11;11;
54869;PMS5003;40756;-37.950;145.008;2022-07-23T05:55:16;16;15;
54869;PMS5003;40756;-37.950;145.008;2022-07-23T05:57:45;21;21;
54869;PMS5003;40756;-37.950;145.008;2022-07-23T06:00:15;20;19;
54869;PMS5003;40756;-37.950;145.008;2022-07-23T06:02:45;27;24;
54869;PMS5003;40756;-37.950;145.008;2022-07-23T06:05:15;23;23;
54869;PMS5003;40756;-37.950;145.008;2022-07-23T06:07:45;20;20;
54869;PMS5003;40756;-37.950;145.008;2022-07-23T06:10:15;22;22;
54869;PMS5003;40756;-37.950;145.008;2022-07-23T06:12:45;22;21;
54869;PMS5003;40756;-37.950;145.008;2022-07-23T06:15:14;33;31;
54869;PMS5003;40756;-37.950;145.008;2022-07-23T06:17:44;33;32;
54869;PMS5003;40756;-37.950;145.008;2022-07-23T06:20:14;22;22;
54869;PMS5003;40756;-37.950;145.008;2022-07-23T06:22:43;24;22;
54869;PMS5003;40756;-37.950;145.008;2022-07-23T06:25:12;22;22;
54869;PMS5003;40756;-37.950;145.008;2022-07-23T06:27:42;19;19;
54869;PMS5003;40756;-37.950;145.008;2022-07-23T06:30:12;24;24;
54869;PMS5003;40756;-37.950;145.008;2022-07-23T06:32:42;21;19;
54869;PMS5003;40756;-37.950;145.008;2022-07-23T06:35:12;23;21;
54869;PMS5003;40756;-37.950;145.008;2022-07-23T06:37:42;23;23;
54869;PMS5003;40756;-37.950;145.008;2022-07-23T06:40:12;23;23;
54869;PMS5003;40756;-37.950;145.008;2022-07-23T06:42:42;21;21;
54869;PMS5003;40756;-37.950;145.008;2022-07-23T06:45:11;21;20;
54869;PMS5003;40756;-37.950;145.008;2022-07-23T06:47:41;26;24;
54869;PMS5003;40756;-37.950;145.008;2022-07-23T06:50:10;24;24;
54869;PMS5003;40756;-37.950;145.008;2022-07-23T06:52:40;25;25;
54869;PMS5003;40756;-37.950;145.008;2022-07-23T06:55:10;27;27;
54869;PMS5003;40756;-37.950;145.008;2022-07-23T06:57:39;29;28;
54869;PMS5003;40756;-37.950;145.008;2022-07-23T07:00:09;33;29;
54869;PMS5003;40756;-37.950;145.008;2022-07-23T07:02:40;28;28;
54869;PMS5003;40756;-37.950;145.008;2022-07-23T07:05:09;30;29;
54869;PMS5003;40756;-37.950;145.008;2022-07-23T07:07:39;29;29;
54869;PMS5003;40756;-37.950;145.008;2022-07-23T07:10:09;46;44;
54869;PMS5003;40756;-37.950;145.008;2022-07-23T07:12:39;37;37;
54869;PMS5003;40756;-37.950;145.008;2022-07-23T07:15:08;37;36;
54869;PMS5003;40756;-37.950;145.008;2022-07-23T07:17:38;41;41;
54869;PMS5003;40756;-37.950;145.008;2022-07-23T07:20:08;46;44;
54869;PMS5003;40756;-37.950;145.008;2022-07-23T07:22:38;47;46;
54869;PMS5003;40756;-37.950;145.008;2022-07-23T07:25:08;38;35;
54869;PMS5003;40756;-37.950;145.008;2022-07-23T07:27:38;37;36;
54869;PMS5003;40756;-37.950;145.008;2022-07-23T07:30:09;39;35;
54869;PMS5003;40756;-37.950;145.008;2022-07-23T07:32:39;37;36;
54869;PMS5003;40756;-37.950;145.008;2022-07-23T07:35:10;37;35;
54869;PMS5003;40756;-37.950;145.008;2022-07-23T07:37:40;37;36;
54869;PMS5003;40756;-37.950;145.008;2022-07-23T07:40:09;37;35;
54869;PMS5003;40756;-37.950;145.008;2022-07-23T07:42:48;38;36;
54869;PMS5003;40756;-37.950;145.008;2022-07-23T07:45:20;37;36;
54869;PMS5003;40756;-37.950;145.008;2022-07-23T07:47:51;40;39;
54869;PMS5003;40756;-37.950;145.008;2022-07-23T07:50:21;44;44;
54869;PMS5003;40756;-37.950;145.008;2022-07-23T07:52:51;46;44;
54869;PMS5003;40756;-37.950;145.008;2022-07-23T07:55:21;43;42;
54869;PMS5003;40756;-37.950;145.008;2022-07-23T07:57:51;41;41;
54869;PMS5003;40756;-37.950;145.008;2022-07-23T08:00:21;47;46;
54869;PMS5003;40756;-37.950;145.008;2022-07-23T08:02:51;44;44;
54869;PMS5003;40756;-37.950;145.008;2022-07-23T08:05:22;43;41;
54869;PMS5003;40756;-37.950;145.008;2022-07-23T08:07:53;42;42;
54869;PMS5003;40756;-37.950;145.008;2022-07-23T08:10:24;37;37;
54869;PMS5003;40756;-37.950;145.008;2022-07-23T08:12:54;33;32;
54869;PMS5003;40756;-37.950;145.008;2022-07-23T08:15:26;34;33;
54869;PMS5003;40756;-37.950;145.008;2022-07-23T08:17:56;41;38;
54869;PMS5003;40756;-37.950;145.008;2022-07-23T08:20:26;37;35;
54869;PMS5003;40756;-37.950;145.008;2022-07-23T08:22:57;39;38;
54869;PMS5003;40756;-37.950;145.008;2022-07-23T08:25:28;37;36;
54869;PMS5003;40756;-37.950;145.008;2022-07-23T08:28:02;33;32;
54869;PMS5003;40756;-37.950;145.008;2022-07-23T08:30:35;39;38;
54869;PMS5003;40756;-37.950;145.008;2022-07-23T08:33:05;36;34;
54869;PMS5003;40756;-37.950;145.008;2022-07-23T08:35:37;32;31;
54869;PMS5003;40756;-37.950;145.008;2022-07-23T08:38:09;25;23;
54869;PMS5003;40756;-37.950;145.008;2022-07-23T08:40:41;26;26;
54869;PMS5003;40756;-37.950;145.008;2022-07-23T08:43:17;26;26;
54869;PMS5003;40756;-37.950;145.008;2022-07-23T08:45:49;33;32;
54869;PMS5003;40756;-37.950;145.008;2022-07-23T08:48:20;38;37;
54869;PMS5003;40756;-37.950;145.008;2022-07-23T08:50:52;41;41;
54869;PMS5003;40756;-37.950;145.008;2022-07-23T08:53:24;39;37;
54869;PMS5003;40756;-37.950;145.008;2022-07-23T08:55:56;43;42;
54869;PMS5003;40756;-37.950;145.008;2022-07-23T08:58:28;44;42;
54869;PMS5003;40756;-37.950;145.008;2022-07-23T09:00:59;47;45;
54869;PMS5003;40756;-37.950;145.008;2022-07-23T09:03:30;53;52;
54869;PMS5003;40756;-37.950;145.008;2022-07-23T09:06:05;50;47;
54869;PMS5003;40756;-37.950;145.008;2022-07-23T09:08:36;46;45;
54869;PMS5003;40756;-37.950;145.008;2022-07-23T09:11:06;43;43;
54869;PMS5003;40756;-37.950;145.008;2022-07-23T09:13:38;41;40;
54869;PMS5003;40756;-37.950;145.008;2022-07-23T09:16:10;44;42;
54869;PMS5003;40756;-37.950;145.008;2022-07-23T09:18:42;44;42;
54869;PMS5003;40756;-37.950;145.008;2022-07-23T09:21:15;43;43;
54869;PMS5003;40756;-37.950;145.008;2022-07-23T09:23:48;53;51;
54869;PMS5003;40756;-37.950;145.008;2022-07-23T09:26:26;45;41;
54869;PMS5003;40756;-37.950;145.008;2022-07-23T09:29:02;42;41;
54869;PMS5003;40756;-37.950;145.008;2022-07-23T09:31:44;48;47;
54869;PMS5003;40756;-37.950;145.008;2022-07-23T09:34:18;63;63;
54869;PMS5003;40756;-37.950;145.008;2022-07-23T09:36:49;63;61;
54869;PMS5003;40756;-37.950;145.008;2022-07-23T09:39:26;66;64;
54869;PMS5003;40756;-37.950;145.008;2022-07-23T09:41:58;77;70;
54869;PMS5003;40756;-37.950;145.008;2022-07-23T09:44:44;82;75;
54869;PMS5003;40756;-37.950;145.008;2022-07-23T09:47:15;78;74;
54869;PMS5003;40756;-37.950;145.008;2022-07-23T09:49:59;71;68;
54869;PMS5003;40756;-37.950;145.008;2022-07-23T09:52:32;66;66;
54869;PMS5003;40756;-37.950;145.008;2022-07-23T09:55:03;69;69;
54869;PMS5003;40756;-37.950;145.008;2022-07-23T09:57:34;71;69;
54869;PMS5003;40756;-37.950;145.008;2022-07-23T10:00:05;73;71;
54869;PMS5003;40756;-37.950;145.008;2022-07-23T10:02:37;83;83;
54869;PMS5003;40756;-37.950;145.008;2022-07-23T10:05:07;77;74;
54869;PMS5003;40756;-37.950;145.008;2022-07-23T10:07:37;75;73;
54869;PMS5003;40756;-37.950;145.008;2022-07-23T10:10:09;82;80;
54869;PMS5003;40756;-37.950;145.008;2022-07-23T10:12:41;75;72;
54869;PMS5003;40756;-37.950;145.008;2022-07-23T10:15:12;71;70;
54869;PMS5003;40756;-37.950;145.008;2022-07-23T10:17:42;75;74;
54869;PMS5003;40756;-37.950;145.008;2022-07-23T10:20:12;78;75;
54869;PMS5003;40756;-37.950;145.008;2022-07-23T10:22:44;80;79;
54869;PMS5003;40756;-37.950;145.008;2022-07-23T10:25:26;82;80;
54869;PMS5003;40756;-37.950;145.008;2022-07-23T10:28:06;82;81;
54869;PMS5003;40756;-37.950;145.008;2022-07-23T10:31:00;81;78;
54869;PMS5003;40756;-37.950;145.008;2022-07-23T10:33:41;79;79;
54869;PMS5003;40756;-37.950;145.008;2022-07-23T10:36:26;83;81;
54869;PMS5003;40756;-37.950;145.008;2022-07-23T10:39:03;80;80;
54869;PMS5003;40756;-37.950;145.008;2022-07-23T10:41:37;86;82;
54869;PMS5003;40756;-37.950;145.008;2022-07-23T10:44:08;89;88;
54869;PMS5003;40756;-37.950;145.008;2022-07-23T10:46:56;82;79;
54869;PMS5003;40756;-37.950;145.008;2022-07-23T10:49:27;89;87;
54869;PMS5003;40756;-37.950;145.008;2022-07-23T10:52:31;86;86;
54869;PMS5003;40756;-37.950;145.008;2022-07-23T10:55:39;98;93;
54869;PMS5003;40756;-37.950;145.008;2022-07-23T10:58:16;91;88;
54869;PMS5003;40756;-37.950;145.008;2022-07-23T11:00:49;102;98;
54869;PMS5003;40756;-37.950;145.008;2022-07-23T11:03:28;96;95;
54869;PMS5003;40756;-37.950;145.008;2022-07-23T11:06:01;83;81;
54869;PMS5003;40756;-37.950;145.008;2022-07-23T11:08:31;87;85;
54869;PMS5003;40756;-37.950;145.008;2022-07-23T11:11:09;79;77;
54869;PMS5003;40756;-37.950;145.008;2022-07-23T11:13:48;85;80;
54869;PMS5003;40756;-37.950;145.008;2022-07-23T11:16:19;78;78;
54869;PMS5003;40756;-37.950;145.008;2022-07-23T11:18:56;77;74;
54869;PMS5003;40756;-37.950;145.008;2022-07-23T11:22:00;91;87;
54869;PMS5003;40756;-37.950;145.008;2022-07-23T11:24:30;82;77;
54869;PMS5003;40756;-37.950;145.008;2022-07-23T11:27:17;83;81;
54869;PMS5003;40756;-37.950;145.008;2022-07-23T11:30:06;70;70;
54869;PMS5003;40756;-37.950;145.008;2022-07-23T11:32:38;77;75;
54869;PMS5003;40756;-37.950;145.008;2022-07-23T11:35:27;80;79;
54869;PMS5003;40756;-37.950;145.008;2022-07-23T11:38:03;76;73;
54869;PMS5003;40756;-37.950;145.008;2022-07-23T11:40:34;75;73;
54869;PMS5003;40756;-37.950;145.008;2022-07-23T11:43:04;74;74;
54869;PMS5003;40756;-37.950;145.008;2022-07-23T11:45:37;95;93;
54869;PMS5003;40756;-37.950;145.008;2022-07-23T11:48:08;101;96;
54869;PMS5003;40756;-37.950;145.008;2022-07-23T11:50:44;96;93;
54869;PMS5003;40756;-37.950;145.008;2022-07-23T11:53:21;94;92;
54869;PMS5003;40756;-37.950;145.008;2022-07-23T11:55:52;93;92;
54869;PMS5003;40756;-37.950;145.008;2022-07-23T11:58:24;103;101;
54869;PMS5003;40756;-37.950;145.008;2022-07-23T12:00:55;85;82;
54869;PMS5003;40756;-37.950;145.008;2022-07-23T12:03:25;95;90;
54869;PMS5003;40756;-37.950;145.008;2022-07-23T12:05:56;85;81;
54869;PMS5003;40756;-37.950;145.008;2022-07-23T12:08:27;80;80;
54869;PMS5003;40756;-37.950;145.008;2022-07-23T12:10:57;88;86;
54869;PMS5003;40756;-37.950;145.008;2022-07-23T12:13:26;85;83;
54869;PMS5003;40756;-37.950;145.008;2022-07-23T12:15:56;93;92;
54869;PMS5003;40756;-37.950;145.008;2022-07-23T12:18:26;95;91;
54869;PMS5003;40756;-37.950;145.008;2022-07-23T12:20:57;98;94;
54869;PMS5003;40756;-37.950;145.008;2022-07-23T12:23:34;94;93;
54869;PMS5003;40756;-37.950;145.008;2022-07-23T12:26:03;96;93;
54869;PMS5003;40756;-37.950;145.008;2022-07-23T12:28:33;93;88;
54869;PMS5003;40756;-37.950;145.008;2022-07-23T12:31:03;84;78;
54869;PMS5003;40756;-37.950;145.008;2022-07-23T12:33:33;76;74;
54869;PMS5003;40756;-37.950;145.008;2022-07-23T12:36:06;72;70;
54869;PMS5003;40756;-37.950;145.008;2022-07-23T12:38:37;68;66;
54869;PMS5003;40756;-37.950;145.008;2022-07-23T12:41:09;64;62;
54869;PMS5003;40756;-37.950;145.008;2022-07-23T12:43:40;60;59;
54869;PMS5003;40756;-37.950;145.008;2022-07-23T12:46:12;63;62;
54869;PMS5003;40756;-37.950;145.008;2022-07-23T12:48:50;59;58;
54869;PMS5003;40756;-37.950;145.008;2022-07-23T12:51:22;54;53;
54869;PMS5003;40756;-37.950;145.008;2022-07-23T12:53:55;48;48;
54869;PMS5003;40756;-37.950;145.008;2022-07-23T12:56:27;49;48;
54869;PMS5003;40756;-37.950;145.008;2022-07-23T12:59:04;54;53;
54869;PMS5003;40756;-37.950;145.008;2022-07-23T13:01:35;49;47;
54869;PMS5003;40756;-37.950;145.008;2022-07-23T13:04:07;44;43;
54869;PMS5003;40756;-37.950;145.008;2022-07-23T13:06:38;45;44;
54869;PMS5003;40756;-37.950;145.008;2022-07-23T13:09:09;42;42;
54869;PMS5003;40756;-37.950;145.008;2022-07-23T13:11:40;41;40;
54869;PMS5003;40756;-37.950;145.008;2022-07-23T13:14:10;40;38;
54869;PMS5003;40756;-37.950;145.008;2022-07-23T13:16:40;41;40;
54869;PMS5003;40756;-37.950;145.008;2022-07-23T13:19:11;36;35;
54869;PMS5003;40756;-37.950;145.008;2022-07-23T13:21:42;41;40;
54869;PMS5003;40756;-37.950;145.008;2022-07-23T13:24:12;34;32;
54869;PMS5003;40756;-37.950;145.008;2022-07-23T13:26:42;32;32;
54869;PMS5003;40756;-37.950;145.008;2022-07-23T13:29:12;27;27;
54869;PMS5003;40756;-37.950;145.008;2022-07-23T13:31:41;25;24;
54869;PMS5003;40756;-37.950;145.008;2022-07-23T13:34:11;28;28;
54869;PMS5003;40756;-37.950;145.008;2022-07-23T13:36:41;27;26;
54869;PMS5003;40756;-37.950;145.008;2022-07-23T13:39:10;29;28;
54869;PMS5003;40756;-37.950;145.008;2022-07-23T13:41:40;24;23;
54869;PMS5003;40756;-37.950;145.008;2022-07-23T13:44:10;24;24;
54869;PMS5003;40756;-37.950;145.008;2022-07-23T13:46:40;21;21;
54869;PMS5003;40756;-37.950;145.008;2022-07-23T13:49:09;23;21;
54869;PMS5003;40756;-37.950;145.008;2022-07-23T13:51:39;22;21;
54869;PMS5003;40756;-37.950;145.008;2022-07-23T13:54:08;21;20;
54869;PMS5003;40756;-37.950;145.008;2022-07-23T13:56:38;19;19;
54869;PMS5003;40756;-37.950;145.008;2022-07-23T13:59:13;19;18;
54869;PMS5003;40756;-37.950;145.008;2022-07-23T14:01:44;16;15;
54869;PMS5003;40756;-37.950;145.008;2022-07-23T14:04:14;12;12;
54869;PMS5003;40756;-37.950;145.008;2022-07-23T14:06:43;15;15;
54869;PMS5003;40756;-37.950;145.008;2022-07-23T14:09:13;14;13;
54869;PMS5003;40756;-37.950;145.008;2022-07-23T14:11:43;14;13;
54869;PMS5003;40756;-37.950;145.008;2022-07-23T14:14:13;11;11;
54869;PMS5003;40756;-37.950;145.008;2022-07-23T14:16:42;13;12;
54869;PMS5003;40756;-37.950;145.008;2022-07-23T14:19:12;15;13;
54869;PMS5003;40756;-37.950;145.008;2022-07-23T14:21:42;12;11;
54869;PMS5003;40756;-37.950;145.008;2022-07-23T14:24:11;12;12;
54869;PMS5003;40756;-37.950;145.008;2022-07-23T14:26:41;11;11;
54869;PMS5003;40756;-37.950;145.008;2022-07-23T14:29:11;12;12;
54869;PMS5003;40756;-37.950;145.008;2022-07-23T14:31:41;11;10;
54869;PMS5003;40756;-37.950;145.008;2022-07-23T14:34:10;10;10;
54869;PMS5003;40756;-37.950;145.008;2022-07-23T14:36:41;9;9;
54869;PMS5003;40756;-37.950;145.008;2022-07-23T14:39:11;10;9;
54869;PMS5003;40756;-37.950;145.008;2022-07-23T14:41:40;9;7;
54869;PMS5003;40756;-37.950;145.008;2022-07-23T14:44:10;10;9;
54869;PMS5003;40756;-37.950;145.008;2022-07-23T14:46:41;9;9;
54869;PMS5003;40756;-37.950;145.008;2022-07-23T14:49:11;8;8;
54869;PMS5003;40756;-37.950;145.008;2022-07-23T14:51:40;9;9;
54869;PMS5003;40756;-37.950;145.008;2022-07-23T14:54:10;9;9;
54869;PMS5003;40756;-37.950;145.008;2022-07-23T14:56:40;7;7;
54869;PMS5003;40756;-37.950;145.008;2022-07-23T14:59:10;5;5;
54869;PMS5003;40756;-37.950;145.008;2022-07-23T15:01:40;7;6;
54869;PMS5003;40756;-37.950;145.008;2022-07-23T15:04:10;7;7;
54869;PMS5003;40756;-37.950;145.008;2022-07-23T15:06:40;7;7;
54869;PMS5003;40756;-37.950;145.008;2022-07-23T15:09:09;8;8;
54869;PMS5003;40756;-37.950;145.008;2022-07-23T15:11:40;7;7;
54869;PMS5003;40756;-37.950;145.008;2022-07-23T15:14:09;11;10;
54869;PMS5003;40756;-37.950;145.008;2022-07-23T15:16:39;6;6;
54869;PMS5003;40756;-37.950;145.008;2022-07-23T15:19:09;6;6;
54869;PMS5003;40756;-37.950;145.008;2022-07-23T15:21:39;5;5;
54869;PMS5003;40756;-37.950;145.008;2022-07-23T15:24:09;8;8;
54869;PMS5003;40756;-37.950;145.008;2022-07-23T15:26:38;7;7;
54869;PMS5003;40756;-37.950;145.008;2022-07-23T15:29:08;8;8;
54869;PMS5003;40756;-37.950;145.008;2022-07-23T15:31:37;7;6;
54869;PMS5003;40756;-37.950;145.008;2022-07-23T15:34:07;7;7;
54869;PMS5003;40756;-37.950;145.008;2022-07-23T15:36:37;5;5;
54869;PMS5003;40756;-37.950;145.008;2022-07-23T15:39:07;8;8;
54869;PMS5003;40756;-37.950;145.008;2022-07-23T15:41:36;8;7;
54869;PMS5003;40756;-37.950;145.008;2022-07-23T15:44:06;9;8;
54869;PMS5003;40756;-37.950;145.008;2022-07-23T15:46:36;7;7;
54869;PMS5003;40756;-37.950;145.008;2022-07-23T15:49:06;6;6;
54869;PMS5003;40756;-37.950;145.008;2022-07-23T15:51:36;5;5;
54869;PMS5003;40756;-37.950;145.008;2022-07-23T15:54:06;6;6;
54869;PMS5003;40756;-37.950;145.008;2022-07-23T15:56:36;6;6;
54869;PMS5003;40756;-37.950;145.008;2022-07-23T15:59:06;7;7;
54869;PMS5003;40756;-37.950;145.008;2022-07-23T16:01:36;7;7;
54869;PMS5003;40756;-37.950;145.008;2022-07-23T16:04:06;8;8;
54869;PMS5003;40756;-37.950;145.008;2022-07-23T16:06:36;9;8;
54869;PMS5003;40756;-37.950;145.008;2022-07-23T16:09:05;7;7;